createdAt,value
2023-03-18T04:23:09.527Z,5.75
2023-03-18T04:25:36.593Z,11.73
2023-03-18T04:28:03.929Z,8.82
2023-03-18T04:30:32.148Z,8.57
2023-03-18T04:33:00.212Z,8.23
2023-03-18T04:35:27.379Z,10.00
2023-03-18T04:37:54.574Z,6.85
2023-03-18T04:40:21.724Z,6.35
2023-03-18T04:42:48.504Z,9.57
2023-03-18T04:45:16.643Z,8.63
2023-03-18T04:47:45.166Z,6.82
2023-03-18T04:50:13.846Z,8.02
2023-03-18T04:52:42.652Z,11.27
2023-03-18T04:55:10.870Z,9.55
2023-03-18T04:57:38.618Z,9.38
2023-03-18T05:00:11.628Z,6.97
2023-03-18T05:02:39.844Z,6.90
2023-03-18T05:05:07.681Z,8.75
2023-03-18T05:07:34.430Z,7.10
2023-03-18T05:10:01.115Z,7.30
2023-03-18T05:12:27.897Z,7.90
2023-03-18T05:14:54.592Z,7.55
2023-03-18T05:17:21.477Z,10.45
2023-03-18T05:19:49.311Z,8.60
2023-03-18T05:22:18.300Z,8.45
2023-03-18T05:24:48.774Z,8.63
2023-03-18T05:27:18.579Z,7.85
2023-03-18T05:29:45.789Z,9.50
2023-03-18T05:32:14.561Z,8.82
2023-03-18T05:34:41.692Z,8.90
2023-03-18T05:37:11.921Z,8.80
2023-03-18T05:39:38.966Z,9.98
2023-03-18T05:42:06.669Z,13.20
2023-03-18T05:44:34.660Z,9.63
2023-03-18T05:47:02.571Z,11.00
2023-03-18T05:49:29.600Z,11.07
2023-03-18T05:51:56.931Z,9.07
2023-03-18T05:54:23.798Z,10.10
2023-03-18T05:56:52.560Z,9.32
2023-03-18T05:59:20.319Z,10.85
2023-03-18T06:01:47.449Z,10.07
2023-03-18T06:04:14.172Z,12.20
2023-03-18T06:06:41.136Z,7.82
2023-03-18T06:09:13.307Z,7.40
2023-03-18T06:11:40.735Z,8.82
2023-03-18T06:14:08.474Z,8.38
2023-03-18T06:16:36.159Z,11.38
2023-03-18T06:19:03.931Z,9.63
2023-03-18T06:21:32.986Z,9.38
2023-03-18T06:24:00.706Z,8.45
2023-03-18T06:26:28.196Z,8.68
2023-03-18T06:28:54.894Z,6.07
2023-03-18T06:31:22.314Z,7.80
2023-03-18T06:33:49.104Z,8.50
2023-03-18T06:36:16.804Z,9.98
2023-03-18T06:38:44.899Z,8.27
2023-03-18T06:41:12.187Z,6.15
2023-03-18T06:43:39.102Z,6.95
2023-03-18T06:46:05.881Z,6.95
2023-03-18T06:48:34.141Z,8.40
2023-03-18T06:51:00.846Z,7.18
2023-03-18T06:53:27.930Z,6.55
2023-03-18T06:55:56.576Z,5.68
2023-03-18T06:58:24.547Z,5.30
2023-03-18T07:00:51.360Z,6.43
2023-03-18T07:03:18.367Z,4.55
2023-03-18T07:05:45.108Z,4.93
2023-03-18T07:08:11.983Z,5.25
2023-03-18T07:10:39.397Z,4.70
2023-03-18T07:13:06.140Z,4.38
2023-03-18T07:15:33.998Z,8.00
2023-03-18T07:18:01.619Z,5.35
2023-03-18T07:20:28.685Z,4.05
2023-03-18T07:22:55.412Z,3.97
2023-03-18T07:25:23.050Z,6.03
2023-03-18T07:27:50.544Z,4.20
2023-03-18T07:30:18.718Z,2.70
2023-03-18T07:32:46.052Z,3.15
2023-03-18T07:35:15.889Z,5.15
2023-03-18T07:37:42.623Z,5.20
2023-03-18T07:40:11.658Z,4.50
2023-03-18T07:42:38.668Z,4.07
2023-03-18T07:45:07.694Z,3.78
2023-03-18T07:47:34.915Z,4.43
2023-03-18T07:50:01.698Z,4.93
2023-03-18T07:52:29.265Z,6.28
2023-03-18T07:54:56.220Z,3.35
2023-03-18T07:57:23.825Z,3.15
2023-03-18T07:59:50.874Z,3.97
2023-03-18T08:02:17.600Z,3.70
2023-03-18T08:04:46.643Z,5.45
2023-03-18T08:07:13.658Z,3.30
2023-03-18T08:09:40.474Z,4.13
2023-03-18T08:12:08.347Z,5.53
2023-03-18T08:14:35.367Z,4.50
2023-03-18T08:17:03.606Z,2.95
2023-03-18T08:19:30.987Z,4.45
2023-03-18T08:21:57.707Z,2.60
2023-03-18T08:24:24.803Z,4.45
2023-03-18T08:26:51.571Z,4.25
2023-03-18T08:29:18.325Z,4.45
2023-03-18T08:31:45.900Z,3.58
2023-03-18T08:34:13.979Z,2.75
2023-03-18T08:36:42.653Z,5.10
2023-03-18T08:39:09.982Z,4.63
2023-03-18T08:41:36.756Z,3.30
2023-03-18T08:44:06.981Z,2.65
2023-03-18T08:46:34.933Z,3.20
2023-03-18T08:49:02.082Z,3.13
2023-03-18T08:51:29.084Z,4.18
2023-03-18T08:53:55.991Z,3.63
2023-03-18T08:56:22.942Z,2.85
2023-03-18T08:58:49.816Z,5.43
2023-03-18T09:01:19.345Z,3.10
2023-03-18T09:03:46.802Z,4.45
2023-03-18T09:06:13.852Z,3.90
2023-03-18T09:08:40.839Z,2.45
2023-03-18T09:11:07.894Z,2.42
2023-03-18T09:13:34.823Z,2.83
2023-03-18T09:16:01.755Z,3.25
2023-03-18T09:18:29.390Z,4.07
2023-03-18T09:20:56.541Z,2.45
2023-03-18T09:23:23.313Z,2.67
2023-03-18T09:25:50.188Z,2.22
2023-03-18T09:28:17.721Z,2.33
2023-03-18T09:30:44.551Z,2.35
2023-03-18T09:33:11.646Z,2.13
2023-03-18T09:35:39.508Z,2.40
2023-03-18T09:38:07.247Z,2.15
2023-03-18T09:40:38.509Z,1.50
2023-03-18T09:43:27.618Z,2.83
2023-03-18T09:46:24.785Z,1.52
2023-03-18T09:49:12.861Z,1.52
2023-03-18T09:52:31.916Z,1.75
2023-03-18T09:55:40.038Z,1.73
2023-03-18T09:58:29.317Z,1.30
2023-03-18T10:01:01.607Z,1.60
2023-03-18T10:03:38.344Z,1.33
2023-03-18T10:06:16.819Z,0.95
2023-03-18T10:09:28.337Z,3.05
2023-03-18T10:12:07.627Z,1.83
2023-03-18T10:15:05.655Z,1.33
2023-03-18T10:17:41.014Z,1.83
2023-03-18T10:20:30.224Z,1.02
2023-03-18T10:23:19.109Z,1.58
2023-03-18T10:25:57.381Z,1.33
2023-03-18T10:28:52.189Z,0.80
2023-03-18T10:31:47.360Z,0.93
2023-03-18T10:34:22.742Z,1.10
2023-03-18T10:37:06.150Z,2.67
2023-03-18T10:39:35.766Z,1.77
2023-03-18T10:42:31.552Z,1.02
2023-03-18T10:45:34.239Z,2.28
2023-03-18T10:48:46.057Z,1.33
2023-03-18T10:51:50.977Z,2.47
2023-03-18T10:54:42.771Z,1.70
2023-03-18T10:57:15.688Z,1.13
2023-03-18T10:59:45.445Z,0.70
2023-03-18T11:02:22.818Z,1.67
2023-03-18T11:05:04.437Z,0.88
2023-03-18T11:07:32.162Z,3.08
2023-03-18T11:10:24.600Z,4.95
2023-03-18T11:13:00.068Z,9.43
2023-03-18T11:15:26.890Z,3.03
2023-03-18T11:17:59.347Z,1.60
2023-03-18T11:20:45.716Z,1.45
2023-03-18T11:23:20.426Z,2.80
2023-03-18T11:25:51.340Z,1.08
2023-03-18T11:28:23.324Z,1.80
2023-03-18T11:30:58.395Z,2.20
2023-03-18T11:33:33.238Z,2.08
2023-03-18T11:36:14.427Z,1.63
2023-03-18T11:38:42.457Z,1.58
2023-03-18T11:41:24.529Z,2.75
2023-03-18T11:44:17.672Z,1.88
2023-03-18T11:47:13.614Z,1.33
2023-03-18T11:49:43.608Z,2.47
2023-03-18T11:52:52.261Z,2.95
2023-03-18T11:55:53.685Z,1.25
2023-03-18T11:58:57.762Z,1.85
2023-03-18T12:01:54.053Z,1.60
2023-03-18T12:04:56.267Z,1.55
2023-03-18T12:07:51.873Z,3.05
2023-03-18T12:10:34.594Z,0.95
2023-03-18T12:13:37.465Z,1.17
2023-03-18T12:16:30.908Z,1.15
2023-03-18T12:19:51.003Z,1.52
2023-03-18T12:22:39.887Z,0.82
2023-03-18T12:25:44.189Z,8.60
2023-03-18T12:28:57.057Z,1.83
2023-03-18T12:32:03.604Z,1.88
2023-03-18T12:34:50.234Z,1.40
2023-03-18T12:37:41.557Z,1.60
2023-03-18T12:40:34.918Z,1.70
2023-03-18T12:43:37.735Z,1.10
2023-03-18T12:46:28.560Z,1.70
2023-03-18T12:49:23.283Z,1.60
2023-03-18T12:52:11.987Z,5.13
2023-03-18T12:55:24.427Z,2.45
2023-03-18T12:58:19.642Z,1.70
2023-03-18T13:01:08.571Z,2.65
2023-03-18T13:03:40.018Z,3.10
2023-03-18T13:06:41.588Z,3.15
2023-03-18T13:09:40.409Z,2.05
2023-03-18T13:12:24.592Z,1.48
2023-03-18T13:14:59.470Z,1.48
2023-03-18T13:17:38.731Z,1.83
2023-03-18T13:20:16.566Z,1.05
2023-03-18T13:22:43.365Z,2.92
2023-03-18T13:26:03.003Z,2.10
2023-03-18T13:28:54.585Z,2.13
2023-03-18T13:32:01.762Z,2.25
2023-03-18T13:35:00.629Z,2.22
2023-03-18T13:38:05.131Z,3.63
2023-03-18T13:40:50.730Z,1.30
2023-03-18T13:43:20.420Z,1.75
2023-03-18T13:45:51.311Z,1.10
2023-03-18T13:48:27.876Z,1.37
2023-03-18T13:50:57.418Z,2.40
2023-03-18T13:53:29.371Z,3.03
2023-03-18T13:55:56.132Z,2.10
2023-03-18T13:58:34.948Z,2.35
2023-03-18T14:01:15.649Z,1.50
2023-03-18T14:03:42.451Z,3.55
2023-03-18T14:06:09.284Z,1.38
2023-03-18T14:08:38.744Z,2.22
2023-03-18T14:11:19.625Z,2.20
2023-03-18T14:14:03.996Z,2.63
2023-03-18T14:16:52.818Z,2.38
2023-03-18T14:19:24.155Z,3.55
2023-03-18T14:22:38.658Z,3.78
2023-03-18T14:25:13.326Z,2.72
2023-03-18T14:27:56.859Z,2.47
2023-03-18T14:30:29.614Z,1.92
2023-03-18T14:33:26.862Z,5.03
2023-03-18T14:36:03.253Z,5.78
2023-03-18T14:38:49.455Z,1.90
2023-03-18T14:41:29.324Z,3.25
2023-03-18T14:44:06.501Z,2.05
2023-03-18T14:46:41.206Z,2.92
2023-03-18T14:49:38.147Z,1.80
2023-03-18T14:52:27.836Z,6.05
2023-03-18T14:54:57.295Z,2.10
2023-03-18T14:57:25.739Z,4.68
2023-03-18T14:59:52.663Z,2.38
2023-03-18T15:02:46.059Z,2.67
2023-03-18T15:05:19.345Z,3.97
2023-03-18T15:07:52.732Z,4.07
2023-03-18T15:10:25.110Z,3.50
2023-03-18T15:13:17.841Z,3.63
2023-03-18T15:15:44.880Z,3.28
2023-03-18T15:18:29.873Z,5.18
2023-03-18T15:21:14.028Z,4.18
2023-03-18T15:23:46.982Z,4.32
2023-03-18T15:26:23.542Z,3.47
2023-03-18T15:28:57.033Z,3.55
2023-03-18T15:31:33.709Z,3.65
2023-03-18T15:34:27.902Z,2.08
2023-03-18T15:37:00.881Z,2.88
2023-03-18T15:39:33.323Z,3.20
2023-03-18T15:42:02.530Z,8.00
2023-03-18T15:44:39.428Z,2.47
2023-03-18T15:47:19.144Z,3.58
2023-03-18T15:50:30.218Z,1.80
2023-03-18T15:53:30.204Z,3.90
2023-03-18T15:55:59.658Z,3.40
2023-03-18T15:58:38.115Z,1.92
2023-03-18T16:01:07.761Z,2.13
2023-03-18T16:03:35.567Z,1.85
2023-03-18T16:06:02.965Z,1.70
2023-03-18T16:08:30.433Z,3.10
2023-03-18T16:11:01.853Z,5.25
2023-03-18T16:13:33.336Z,1.40
2023-03-18T16:16:01.005Z,3.10
2023-03-18T16:18:27.779Z,2.13
2023-03-18T16:20:55.105Z,2.30
2023-03-18T16:23:22.049Z,1.52
2023-03-18T16:25:52.562Z,2.35
2023-03-18T16:28:26.336Z,1.85
2023-03-18T16:30:55.751Z,1.35
2023-03-18T16:33:24.184Z,1.77
2023-03-18T16:36:02.238Z,1.95
2023-03-18T16:38:31.054Z,1.05
2023-03-18T16:40:58.391Z,1.75
2023-03-18T16:43:28.955Z,1.45
2023-03-18T16:46:03.968Z,1.08
2023-03-18T16:48:31.189Z,3.95
2023-03-18T16:51:01.172Z,1.05
2023-03-18T16:53:31.400Z,3.00
2023-03-18T16:56:16.302Z,0.70
2023-03-18T16:58:44.510Z,1.10
2023-03-18T17:01:16.481Z,1.05
2023-03-18T17:03:44.141Z,1.23
2023-03-18T17:06:12.577Z,1.40
2023-03-18T17:08:39.993Z,1.42
2023-03-18T17:11:07.479Z,1.48
2023-03-18T17:13:38.487Z,0.95
2023-03-18T17:16:05.749Z,1.47
2023-03-18T17:18:33.112Z,1.88
2023-03-18T17:21:00.554Z,1.27
2023-03-18T17:23:28.598Z,1.85
2023-03-18T17:26:00.434Z,1.20
2023-03-18T17:31:01.521Z,1.60
2023-03-18T17:33:34.585Z,0.80
2023-03-18T17:36:02.072Z,1.00
2023-03-18T17:38:34.825Z,1.02
2023-03-18T17:41:06.197Z,1.00
2023-03-18T17:43:36.273Z,2.30
2023-03-18T17:46:05.008Z,1.83
2023-03-18T17:48:34.829Z,2.70
2023-03-18T17:51:19.719Z,2.38
2023-03-18T17:53:56.333Z,1.77
2023-03-18T17:56:23.080Z,1.38
2023-03-18T17:58:51.771Z,1.35
2023-03-18T18:01:27.184Z,1.75
2023-03-18T18:03:59.666Z,2.75
2023-03-18T18:06:29.140Z,1.23
2023-03-18T18:09:00.153Z,0.93
2023-03-18T18:11:35.331Z,2.45
2023-03-18T18:14:28.893Z,1.60
2023-03-18T18:16:56.634Z,2.00
2023-03-18T18:19:24.185Z,3.20
2023-03-18T18:21:52.126Z,4.00
2023-03-18T18:24:23.029Z,2.08
2023-03-18T18:26:50.578Z,1.77
2023-03-18T18:29:22.776Z,1.70
2023-03-18T18:31:50.102Z,1.50
2023-03-18T18:34:16.928Z,2.88
2023-03-18T18:36:44.951Z,4.22
2023-03-18T18:39:11.985Z,2.97
2023-03-18T18:41:38.791Z,2.70
2023-03-18T18:44:06.027Z,2.60
2023-03-18T18:46:34.226Z,3.08
2023-03-18T18:49:01.727Z,3.53
2023-03-18T18:51:28.442Z,4.85
2023-03-18T18:53:55.767Z,2.42
2023-03-18T18:56:36.688Z,2.13
2023-03-18T18:59:27.527Z,2.15
2023-03-18T19:01:55.646Z,3.38
2023-03-18T19:04:23.582Z,1.65
2023-03-18T19:06:52.233Z,2.78
2023-03-18T19:09:24.489Z,2.95
2023-03-18T19:11:53.262Z,2.00
2023-03-18T19:14:28.688Z,3.20
2023-03-18T19:16:58.873Z,2.97
2023-03-18T19:19:29.230Z,4.00
2023-03-18T19:21:57.746Z,5.35
2023-03-18T19:24:32.007Z,3.90
2023-03-18T19:27:27.526Z,2.40
2023-03-18T19:29:59.094Z,4.90
2023-03-18T19:32:27.365Z,3.20
2023-03-18T19:34:54.774Z,3.13
2023-03-18T19:37:32.153Z,2.42
2023-03-18T19:40:00.645Z,3.35
2023-03-18T19:42:27.447Z,5.15
2023-03-18T19:44:54.222Z,3.28
2023-03-18T19:47:25.813Z,2.80
2023-03-18T19:49:53.006Z,3.83
2023-03-18T19:52:26.363Z,4.75
2023-03-18T19:54:54.787Z,2.47
2023-03-18T19:57:28.308Z,3.03
2023-03-18T19:59:57.891Z,3.90
2023-03-18T20:02:30.411Z,3.92
2023-03-18T20:05:00.852Z,3.60
2023-03-18T20:07:31.403Z,5.32
2023-03-18T20:09:58.139Z,4.40
2023-03-18T20:12:36.925Z,3.28
2023-03-18T20:15:14.650Z,3.90
2023-03-18T20:17:50.491Z,4.32
2023-03-18T20:20:19.993Z,7.07
2023-03-18T20:22:55.836Z,3.28
2023-03-18T20:25:33.985Z,2.58
2023-03-18T20:28:01.220Z,4.53
2023-03-18T20:30:35.301Z,3.97
2023-03-18T20:33:05.832Z,3.35
2023-03-18T20:35:37.183Z,3.60
2023-03-18T20:38:38.251Z,3.72
2023-03-18T20:41:06.625Z,4.47
2023-03-18T20:43:33.959Z,5.32
2023-03-18T20:46:02.129Z,3.58
2023-03-18T20:48:29.097Z,4.32
2023-03-18T20:50:56.100Z,3.22
2023-03-18T20:53:31.594Z,5.18
2023-03-18T20:55:58.341Z,5.00
2023-03-18T20:58:28.019Z,2.85
2023-03-18T21:00:55.211Z,2.20
2023-03-18T21:03:31.222Z,3.95
2023-03-18T21:06:01.440Z,2.70
2023-03-18T21:08:29.265Z,2.22
2023-03-18T21:11:00.982Z,3.47
2023-03-18T21:13:35.967Z,1.92
2023-03-18T21:16:05.162Z,3.13
2023-03-18T21:18:32.850Z,1.52
2023-03-18T21:21:00.986Z,2.42
2023-03-18T21:23:32.073Z,2.42
2023-03-18T21:25:59.120Z,1.50
2023-03-18T21:28:28.991Z,1.80
2023-03-18T21:30:58.503Z,1.98
2023-03-18T21:33:34.254Z,1.70
2023-03-18T21:36:02.064Z,1.77
2023-03-18T21:38:31.914Z,3.22
2023-03-18T21:41:01.608Z,1.30
2023-03-18T21:43:39.596Z,3.63
2023-03-18T21:46:13.658Z,2.10
2023-03-18T21:48:40.640Z,1.67
2023-03-18T21:51:35.231Z,2.40
2023-03-18T21:54:04.741Z,2.50
2023-03-18T21:56:31.524Z,1.05
2023-03-18T21:58:58.395Z,2.58
2023-03-18T22:01:31.984Z,1.35
2023-03-18T22:03:59.212Z,1.40
2023-03-18T22:06:26.248Z,0.70
2023-03-18T22:08:53.030Z,2.00
2023-03-18T22:11:22.000Z,1.35
2023-03-18T22:13:49.730Z,0.95
2023-03-18T22:16:18.580Z,1.38
2023-03-18T22:18:47.233Z,1.33
2023-03-18T22:21:25.179Z,0.95
2023-03-18T22:23:53.246Z,1.20
2023-03-18T22:26:21.076Z,2.42
2023-03-18T22:28:48.624Z,2.10
2023-03-18T22:31:26.153Z,4.55
2023-03-18T22:33:53.567Z,6.18
2023-03-18T22:36:25.407Z,1.80
2023-03-18T22:38:52.730Z,1.70
2023-03-18T22:41:29.075Z,1.75
2023-03-18T22:43:57.864Z,2.90
2023-03-18T22:46:24.663Z,2.30
2023-03-18T22:48:51.484Z,3.22
2023-03-18T22:51:28.671Z,3.92
2023-03-18T22:53:55.997Z,2.58
2023-03-18T22:56:23.160Z,2.25
2023-03-18T22:58:50.690Z,3.00
2023-03-18T23:01:21.289Z,3.72
2023-03-18T23:03:48.863Z,3.47
2023-03-18T23:06:19.816Z,2.17
2023-03-18T23:08:46.814Z,3.08
2023-03-18T23:11:13.928Z,2.67
2023-03-18T23:13:44.122Z,4.72
2023-03-18T23:16:21.959Z,3.97
2023-03-18T23:18:50.418Z,2.78
2023-03-18T23:21:24.990Z,2.67
2023-03-18T23:23:53.290Z,3.47
2023-03-18T23:26:20.873Z,4.43
2023-03-18T23:28:48.920Z,2.53
2023-03-18T23:31:16.478Z,2.15
2023-03-18T23:33:44.032Z,5.55
2023-03-18T23:36:11.589Z,3.00
2023-03-18T23:38:38.368Z,2.80
2023-03-18T23:41:06.168Z,2.78
2023-03-18T23:43:33.023Z,2.22
2023-03-18T23:45:59.993Z,2.42
2023-03-18T23:48:26.795Z,2.35
2023-03-18T23:50:53.705Z,2.15
2023-03-18T23:53:20.800Z,3.47
2023-03-18T23:55:49.272Z,3.25
2023-03-18T23:58:16.544Z,2.15
